sensor_id;sensor_type;location;lat;lon;timestamp;P1;durP1;ratioP1;P2;durP2;ratioP2
6663;SDS011;58749;48.022;10.922;2023-01-29T00:00:12;46.72;;;18.38;;
6663;SDS011;58749;48.022;10.922;2023-01-29T00:02:41;46.03;;;17.95;;
6663;SDS011;58749;48.022;10.922;2023-01-29T00:05:10;44.65;;;19.58;;
6663;SDS011;58749;48.022;10.922;2023-01-29T00:07:54;44.75;;;19.45;;
6663;SDS011;58749;48.022;10.922;2023-01-29T00:10:24;44.70;;;20.08;;
6663;SDS011;58749;48.022;10.922;2023-01-29T00:12:52;51.00;;;20.42;;
6663;SDS011;58749;48.022;10.922;2023-01-29T00:15:23;46.90;;;21.05;;
6663;SDS011;58749;48.022;10.922;2023-01-29T00:17:51;42.13;;;19.85;;
6663;SDS011;58749;48.022;10.922;2023-01-29T00:20:19;41.35;;;18.88;;
6663;SDS011;58749;48.022;10.922;2023-01-29T00:22:48;39.95;;;18.52;;
6663;SDS011;58749;48.022;10.922;2023-01-29T00:25:17;41.42;;;17.88;;
6663;SDS011;58749;48.022;10.922;2023-01-29T00:27:45;38.78;;;17.60;;
6663;SDS011;58749;48.022;10.922;2023-01-29T00:30:14;44.95;;;17.45;;
6663;SDS011;58749;48.022;10.922;2023-01-29T00:32:45;49.75;;;21.23;;
6663;SDS011;58749;48.022;10.922;2023-01-29T00:35:16;54.88;;;22.02;;
6663;SDS011;58749;48.022;10.922;2023-01-29T00:37:44;45.28;;;18.85;;
6663;SDS011;58749;48.022;10.922;2023-01-29T00:40:12;38.65;;;18.48;;
6663;SDS011;58749;48.022;10.922;2023-01-29T00:42:44;38.15;;;17.95;;
6663;SDS011;58749;48.022;10.922;2023-01-29T00:45:29;45.45;;;20.60;;
6663;SDS011;58749;48.022;10.922;2023-01-29T00:47:57;40.28;;;17.27;;
6663;SDS011;58749;48.022;10.922;2023-01-29T00:50:25;40.22;;;17.92;;
6663;SDS011;58749;48.022;10.922;2023-01-29T00:52:54;33.53;;;16.02;;
6663;SDS011;58749;48.022;10.922;2023-01-29T00:55:22;42.55;;;17.33;;
6663;SDS011;58749;48.022;10.922;2023-01-29T00:57:52;36.53;;;15.45;;
6663;SDS011;58749;48.022;10.922;2023-01-29T01:00:20;34.70;;;14.25;;
6663;SDS011;58749;48.022;10.922;2023-01-29T01:02:50;35.17;;;15.38;;
6663;SDS011;58749;48.022;10.922;2023-01-29T01:05:32;38.72;;;16.48;;
6663;SDS011;58749;48.022;10.922;2023-01-29T01:08:02;40.97;;;17.30;;
6663;SDS011;58749;48.022;10.922;2023-01-29T01:10:57;33.17;;;13.95;;
6663;SDS011;58749;48.022;10.922;2023-01-29T01:13:26;32.13;;;14.68;;
6663;SDS011;58749;48.022;10.922;2023-01-29T01:15:54;35.00;;;15.00;;
6663;SDS011;58749;48.022;10.922;2023-01-29T01:18:22;32.30;;;14.30;;
6663;SDS011;58749;48.022;10.922;2023-01-29T01:20:55;27.63;;;12.77;;
6663;SDS011;58749;48.022;10.922;2023-01-29T01:23:24;29.85;;;14.48;;
6663;SDS011;58749;48.022;10.922;2023-01-29T01:25:53;31.33;;;14.73;;
6663;SDS011;58749;48.022;10.922;2023-01-29T01:28:21;35.13;;;16.35;;
6663;SDS011;58749;48.022;10.922;2023-01-29T01:30:50;33.88;;;15.60;;
6663;SDS011;58749;48.022;10.922;2023-01-29T01:33:19;34.67;;;15.93;;
6663;SDS011;58749;48.022;10.922;2023-01-29T01:35:47;35.90;;;16.92;;
6663;SDS011;58749;48.022;10.922;2023-01-29T01:38:15;34.08;;;17.02;;
6663;SDS011;58749;48.022;10.922;2023-01-29T01:40:43;38.35;;;18.08;;
6663;SDS011;58749;48.022;10.922;2023-01-29T01:43:12;34.88;;;15.65;;
6663;SDS011;58749;48.022;10.922;2023-01-29T01:45:40;37.25;;;17.15;;
6663;SDS011;58749;48.022;10.922;2023-01-29T01:48:14;35.83;;;18.05;;
6663;SDS011;58749;48.022;10.922;2023-01-29T01:50:46;37.17;;;17.88;;
6663;SDS011;58749;48.022;10.922;2023-01-29T01:53:17;41.67;;;18.08;;
6663;SDS011;58749;48.022;10.922;2023-01-29T01:55:49;42.50;;;18.73;;
6663;SDS011;58749;48.022;10.922;2023-01-29T01:58:21;35.05;;;15.93;;
6663;SDS011;58749;48.022;10.922;2023-01-29T02:03:22;37.78;;;17.88;;
6663;SDS011;58749;48.022;10.922;2023-01-29T02:06:10;42.33;;;18.17;;
6663;SDS011;58749;48.022;10.922;2023-01-29T02:08:56;38.80;;;18.08;;
6663;SDS011;58749;48.022;10.922;2023-01-29T02:11:45;48.75;;;20.98;;
6663;SDS011;58749;48.022;10.922;2023-01-29T02:14:15;56.15;;;22.70;;
6663;SDS011;58749;48.022;10.922;2023-01-29T02:16:44;44.50;;;19.88;;
6663;SDS011;58749;48.022;10.922;2023-01-29T02:19:15;39.78;;;18.42;;
6663;SDS011;58749;48.022;10.922;2023-01-29T02:22:10;37.80;;;17.30;;
6663;SDS011;58749;48.022;10.922;2023-01-29T02:25:05;36.65;;;16.85;;
6663;SDS011;58749;48.022;10.922;2023-01-29T02:28:00;38.67;;;16.88;;
6663;SDS011;58749;48.022;10.922;2023-01-29T02:30:43;39.75;;;17.17;;
6663;SDS011;58749;48.022;10.922;2023-01-29T02:33:18;41.80;;;18.13;;
6663;SDS011;58749;48.022;10.922;2023-01-29T02:35:54;42.30;;;18.70;;
6663;SDS011;58749;48.022;10.922;2023-01-29T02:38:29;34.45;;;16.92;;
6663;SDS011;58749;48.022;10.922;2023-01-29T02:41:03;37.58;;;16.60;;
6663;SDS011;58749;48.022;10.922;2023-01-29T02:43:37;40.45;;;19.08;;
6663;SDS011;58749;48.022;10.922;2023-01-29T02:46:14;38.53;;;18.10;;
6663;SDS011;58749;48.022;10.922;2023-01-29T02:48:48;39.20;;;17.45;;
6663;SDS011;58749;48.022;10.922;2023-01-29T02:51:23;38.88;;;17.95;;
6663;SDS011;58749;48.022;10.922;2023-01-29T02:53:58;44.30;;;18.38;;
6663;SDS011;58749;48.022;10.922;2023-01-29T02:56:30;44.17;;;18.85;;
6663;SDS011;58749;48.022;10.922;2023-01-29T02:59:06;43.13;;;17.95;;
6663;SDS011;58749;48.022;10.922;2023-01-29T03:01:39;34.90;;;16.92;;
6663;SDS011;58749;48.022;10.922;2023-01-29T03:04:13;37.97;;;17.02;;
6663;SDS011;58749;48.022;10.922;2023-01-29T03:06:47;40.10;;;18.23;;
6663;SDS011;58749;48.022;10.922;2023-01-29T03:09:23;39.33;;;17.98;;
6663;SDS011;58749;48.022;10.922;2023-01-29T03:11:58;38.17;;;18.27;;
6663;SDS011;58749;48.022;10.922;2023-01-29T03:14:47;35.92;;;15.68;;
6663;SDS011;58749;48.022;10.922;2023-01-29T03:17:35;42.08;;;17.65;;
6663;SDS011;58749;48.022;10.922;2023-01-29T03:20:10;41.53;;;18.75;;
6663;SDS011;58749;48.022;10.922;2023-01-29T03:22:43;35.85;;;18.00;;
6663;SDS011;58749;48.022;10.922;2023-01-29T03:25:16;39.88;;;20.15;;
6663;SDS011;58749;48.022;10.922;2023-01-29T03:28:03;36.55;;;18.75;;
6663;SDS011;58749;48.022;10.922;2023-01-29T03:30:52;33.35;;;16.42;;
6663;SDS011;58749;48.022;10.922;2023-01-29T03:33:41;31.63;;;16.77;;
6663;SDS011;58749;48.022;10.922;2023-01-29T03:36:13;33.92;;;16.98;;
6663;SDS011;58749;48.022;10.922;2023-01-29T03:38:45;34.17;;;18.45;;
6663;SDS011;58749;48.022;10.922;2023-01-29T03:41:14;36.03;;;18.00;;
6663;SDS011;58749;48.022;10.922;2023-01-29T03:43:50;31.67;;;18.27;;
6663;SDS011;58749;48.022;10.922;2023-01-29T03:46:28;35.38;;;17.65;;
6663;SDS011;58749;48.022;10.922;2023-01-29T03:49:00;36.78;;;17.98;;
6663;SDS011;58749;48.022;10.922;2023-01-29T03:51:34;33.50;;;16.38;;
6663;SDS011;58749;48.022;10.922;2023-01-29T03:54:12;35.75;;;18.38;;
6663;SDS011;58749;48.022;10.922;2023-01-29T03:56:49;39.25;;;18.98;;
6663;SDS011;58749;48.022;10.922;2023-01-29T03:59:27;31.88;;;17.13;;
6663;SDS011;58749;48.022;10.922;2023-01-29T04:02:03;38.83;;;18.08;;
6663;SDS011;58749;48.022;10.922;2023-01-29T04:04:35;33.35;;;17.80;;
6663;SDS011;58749;48.022;10.922;2023-01-29T04:07:07;36.63;;;18.77;;
6663;SDS011;58749;48.022;10.922;2023-01-29T04:09:39;40.25;;;18.23;;
6663;SDS011;58749;48.022;10.922;2023-01-29T04:12:12;40.80;;;18.85;;
6663;SDS011;58749;48.022;10.922;2023-01-29T04:14:43;37.75;;;19.95;;
6663;SDS011;58749;48.022;10.922;2023-01-29T04:17:15;32.22;;;17.50;;
6663;SDS011;58749;48.022;10.922;2023-01-29T04:19:46;33.90;;;17.85;;
6663;SDS011;58749;48.022;10.922;2023-01-29T04:22:16;37.45;;;18.55;;
6663;SDS011;58749;48.022;10.922;2023-01-29T04:24:49;35.03;;;17.90;;
6663;SDS011;58749;48.022;10.922;2023-01-29T04:27:21;35.22;;;17.67;;
6663;SDS011;58749;48.022;10.922;2023-01-29T04:29:56;39.15;;;18.15;;
6663;SDS011;58749;48.022;10.922;2023-01-29T04:32:39;34.15;;;18.98;;
6663;SDS011;58749;48.022;10.922;2023-01-29T04:35:21;29.27;;;16.42;;
6663;SDS011;58749;48.022;10.922;2023-01-29T04:37:56;35.70;;;18.08;;
6663;SDS011;58749;48.022;10.922;2023-01-29T04:40:35;30.60;;;18.00;;
6663;SDS011;58749;48.022;10.922;2023-01-29T04:43:12;34.78;;;17.60;;
6663;SDS011;58749;48.022;10.922;2023-01-29T04:45:44;38.67;;;19.05;;
6663;SDS011;58749;48.022;10.922;2023-01-29T04:48:23;32.45;;;17.25;;
6663;SDS011;58749;48.022;10.922;2023-01-29T04:50:56;37.22;;;21.08;;
6663;SDS011;58749;48.022;10.922;2023-01-29T04:53:35;36.42;;;19.40;;
6663;SDS011;58749;48.022;10.922;2023-01-29T04:56:12;36.20;;;18.60;;
6663;SDS011;58749;48.022;10.922;2023-01-29T04:58:46;33.70;;;19.23;;
6663;SDS011;58749;48.022;10.922;2023-01-29T05:01:18;34.20;;;19.92;;
6663;SDS011;58749;48.022;10.922;2023-01-29T05:03:52;35.67;;;20.33;;
6663;SDS011;58749;48.022;10.922;2023-01-29T05:06:22;39.38;;;20.40;;
6663;SDS011;58749;48.022;10.922;2023-01-29T05:08:51;59.25;;;19.73;;
6663;SDS011;58749;48.022;10.922;2023-01-29T05:11:20;35.83;;;19.08;;
6663;SDS011;58749;48.022;10.922;2023-01-29T05:13:50;33.05;;;19.00;;
6663;SDS011;58749;48.022;10.922;2023-01-29T05:16:19;38.95;;;21.02;;
6663;SDS011;58749;48.022;10.922;2023-01-29T05:18:53;34.70;;;19.33;;
6663;SDS011;58749;48.022;10.922;2023-01-29T05:21:21;35.38;;;18.50;;
6663;SDS011;58749;48.022;10.922;2023-01-29T05:24:07;36.00;;;20.15;;
6663;SDS011;58749;48.022;10.922;2023-01-29T05:26:36;34.00;;;19.27;;
6663;SDS011;58749;48.022;10.922;2023-01-29T05:29:22;34.95;;;19.13;;
6663;SDS011;58749;48.022;10.922;2023-01-29T05:31:50;36.90;;;17.67;;
6663;SDS011;58749;48.022;10.922;2023-01-29T05:34:19;36.03;;;19.88;;
6663;SDS011;58749;48.022;10.922;2023-01-29T05:36:47;36.75;;;20.65;;
6663;SDS011;58749;48.022;10.922;2023-01-29T05:39:15;33.88;;;17.70;;
6663;SDS011;58749;48.022;10.922;2023-01-29T05:41:43;31.13;;;18.08;;
6663;SDS011;58749;48.022;10.922;2023-01-29T05:44:11;35.75;;;20.45;;
6663;SDS011;58749;48.022;10.922;2023-01-29T05:46:40;35.05;;;19.73;;
6663;SDS011;58749;48.022;10.922;2023-01-29T05:49:09;38.53;;;20.55;;
6663;SDS011;58749;48.022;10.922;2023-01-29T05:51:38;42.63;;;24.25;;
6663;SDS011;58749;48.022;10.922;2023-01-29T05:54:06;35.17;;;17.45;;
6663;SDS011;58749;48.022;10.922;2023-01-29T05:56:37;35.70;;;18.70;;
6663;SDS011;58749;48.022;10.922;2023-01-29T05:59:05;34.92;;;18.17;;
6663;SDS011;58749;48.022;10.922;2023-01-29T06:01:33;32.30;;;18.15;;
6663;SDS011;58749;48.022;10.922;2023-01-29T06:04:01;31.95;;;17.90;;
6663;SDS011;58749;48.022;10.922;2023-01-29T06:06:29;27.58;;;16.50;;
6663;SDS011;58749;48.022;10.922;2023-01-29T06:08:59;30.65;;;16.70;;
6663;SDS011;58749;48.022;10.922;2023-01-29T06:11:27;33.08;;;18.45;;
6663;SDS011;58749;48.022;10.922;2023-01-29T06:13:55;30.15;;;18.10;;
6663;SDS011;58749;48.022;10.922;2023-01-29T06:16:23;33.40;;;20.10;;
6663;SDS011;58749;48.022;10.922;2023-01-29T06:18:51;30.70;;;18.70;;
6663;SDS011;58749;48.022;10.922;2023-01-29T06:21:19;30.20;;;18.15;;
6663;SDS011;58749;48.022;10.922;2023-01-29T06:23:47;31.88;;;18.17;;
6663;SDS011;58749;48.022;10.922;2023-01-29T06:26:17;31.77;;;18.50;;
6663;SDS011;58749;48.022;10.922;2023-01-29T06:28:47;27.77;;;17.35;;
6663;SDS011;58749;48.022;10.922;2023-01-29T06:31:16;29.38;;;18.02;;
6663;SDS011;58749;48.022;10.922;2023-01-29T06:34:02;33.47;;;18.52;;
6663;SDS011;58749;48.022;10.922;2023-01-29T06:36:30;34.25;;;20.35;;
6663;SDS011;58749;48.022;10.922;2023-01-29T06:38:58;34.33;;;20.38;;
6663;SDS011;58749;48.022;10.922;2023-01-29T06:41:28;33.90;;;18.88;;
6663;SDS011;58749;48.022;10.922;2023-01-29T06:43:56;37.58;;;19.27;;
6663;SDS011;58749;48.022;10.922;2023-01-29T06:46:24;38.47;;;19.88;;
6663;SDS011;58749;48.022;10.922;2023-01-29T06:48:52;34.17;;;20.30;;
6663;SDS011;58749;48.022;10.922;2023-01-29T06:51:20;32.33;;;18.35;;
6663;SDS011;58749;48.022;10.922;2023-01-29T06:53:48;28.92;;;17.60;;
6663;SDS011;58749;48.022;10.922;2023-01-29T06:56:17;33.90;;;18.63;;
6663;SDS011;58749;48.022;10.922;2023-01-29T06:58:46;33.60;;;18.75;;
6663;SDS011;58749;48.022;10.922;2023-01-29T07:01:14;34.15;;;19.17;;
6663;SDS011;58749;48.022;10.922;2023-01-29T07:04:01;37.00;;;22.90;;
6663;SDS011;58749;48.022;10.922;2023-01-29T07:06:29;28.67;;;18.23;;
6663;SDS011;58749;48.022;10.922;2023-01-29T07:08:58;25.45;;;14.73;;
6663;SDS011;58749;48.022;10.922;2023-01-29T07:11:26;35.13;;;18.00;;
6663;SDS011;58749;48.022;10.922;2023-01-29T07:13:55;31.23;;;17.67;;
6663;SDS011;58749;48.022;10.922;2023-01-29T07:16:23;33.05;;;17.45;;
6663;SDS011;58749;48.022;10.922;2023-01-29T07:18:52;32.75;;;18.58;;
6663;SDS011;58749;48.022;10.922;2023-01-29T07:21:20;34.08;;;17.85;;
6663;SDS011;58749;48.022;10.922;2023-01-29T07:23:48;31.60;;;17.77;;
6663;SDS011;58749;48.022;10.922;2023-01-29T07:26:16;30.13;;;16.42;;
6663;SDS011;58749;48.022;10.922;2023-01-29T07:28:44;32.08;;;17.60;;
6663;SDS011;58749;48.022;10.922;2023-01-29T07:31:13;30.13;;;17.48;;
6663;SDS011;58749;48.022;10.922;2023-01-29T07:33:42;20.63;;;13.13;;
6663;SDS011;58749;48.022;10.922;2023-01-29T07:36:11;20.98;;;12.65;;
6663;SDS011;58749;48.022;10.922;2023-01-29T07:38:41;28.58;;;16.63;;
6663;SDS011;58749;48.022;10.922;2023-01-29T07:41:10;31.13;;;16.38;;
6663;SDS011;58749;48.022;10.922;2023-01-29T07:43:38;28.52;;;15.80;;
6663;SDS011;58749;48.022;10.922;2023-01-29T07:46:07;27.33;;;15.82;;
6663;SDS011;58749;48.022;10.922;2023-01-29T07:48:36;28.60;;;16.42;;
6663;SDS011;58749;48.022;10.922;2023-01-29T07:51:04;25.27;;;14.85;;
6663;SDS011;58749;48.022;10.922;2023-01-29T07:53:32;27.00;;;16.23;;
6663;SDS011;58749;48.022;10.922;2023-01-29T07:56:02;20.23;;;11.52;;
6663;SDS011;58749;48.022;10.922;2023-01-29T07:58:30;25.75;;;15.10;;
6663;SDS011;58749;48.022;10.922;2023-01-29T08:01:03;28.13;;;16.63;;
6663;SDS011;58749;48.022;10.922;2023-01-29T08:03:33;27.05;;;15.50;;
6663;SDS011;58749;48.022;10.922;2023-01-29T08:06:03;27.50;;;14.93;;
6663;SDS011;58749;48.022;10.922;2023-01-29T08:08:31;25.85;;;16.00;;
6663;SDS011;58749;48.022;10.922;2023-01-29T08:11:21;16.23;;;9.70;;
6663;SDS011;58749;48.022;10.922;2023-01-29T08:13:50;26.45;;;14.65;;
6663;SDS011;58749;48.022;10.922;2023-01-29T08:16:18;21.77;;;12.98;;
6663;SDS011;58749;48.022;10.922;2023-01-29T08:18:46;21.95;;;13.32;;
6663;SDS011;58749;48.022;10.922;2023-01-29T08:21:15;23.67;;;13.43;;
6663;SDS011;58749;48.022;10.922;2023-01-29T08:23:43;22.10;;;12.82;;
6663;SDS011;58749;48.022;10.922;2023-01-29T08:26:11;21.30;;;13.25;;
6663;SDS011;58749;48.022;10.922;2023-01-29T08:28:42;21.35;;;12.68;;
6663;SDS011;58749;48.022;10.922;2023-01-29T08:31:13;22.42;;;12.15;;
6663;SDS011;58749;48.022;10.922;2023-01-29T08:33:41;23.77;;;14.32;;
6663;SDS011;58749;48.022;10.922;2023-01-29T08:36:09;21.27;;;12.90;;
6663;SDS011;58749;48.022;10.922;2023-01-29T08:38:39;22.77;;;13.57;;
6663;SDS011;58749;48.022;10.922;2023-01-29T08:41:07;22.77;;;12.73;;
6663;SDS011;58749;48.022;10.922;2023-01-29T08:43:35;20.02;;;12.68;;
6663;SDS011;58749;48.022;10.922;2023-01-29T08:46:04;22.90;;;12.63;;
6663;SDS011;58749;48.022;10.922;2023-01-29T08:48:33;19.25;;;12.18;;
6663;SDS011;58749;48.022;10.922;2023-01-29T08:51:01;20.27;;;11.57;;
6663;SDS011;58749;48.022;10.922;2023-01-29T08:53:29;19.27;;;11.85;;
6663;SDS011;58749;48.022;10.922;2023-01-29T08:55:59;20.10;;;11.48;;
6663;SDS011;58749;48.022;10.922;2023-01-29T08:58:28;19.85;;;11.70;;
6663;SDS011;58749;48.022;10.922;2023-01-29T09:00:56;17.63;;;11.55;;
6663;SDS011;58749;48.022;10.922;2023-01-29T09:03:31;19.67;;;11.73;;
6663;SDS011;58749;48.022;10.922;2023-01-29T09:05:59;21.60;;;12.38;;
6663;SDS011;58749;48.022;10.922;2023-01-29T09:08:27;15.00;;;8.68;;
6663;SDS011;58749;48.022;10.922;2023-01-29T09:10:57;14.52;;;9.52;;
6663;SDS011;58749;48.022;10.922;2023-01-29T09:13:26;14.93;;;8.90;;
6663;SDS011;58749;48.022;10.922;2023-01-29T09:15:57;15.95;;;9.50;;
6663;SDS011;58749;48.022;10.922;2023-01-29T09:18:26;15.77;;;8.80;;
6663;SDS011;58749;48.022;10.922;2023-01-29T09:20:54;15.98;;;10.10;;
6663;SDS011;58749;48.022;10.922;2023-01-29T09:23:22;18.45;;;10.10;;
6663;SDS011;58749;48.022;10.922;2023-01-29T09:25:51;17.92;;;10.00;;
6663;SDS011;58749;48.022;10.922;2023-01-29T09:28:19;15.75;;;9.35;;
6663;SDS011;58749;48.022;10.922;2023-01-29T09:30:48;13.43;;;8.25;;
6663;SDS011;58749;48.022;10.922;2023-01-29T09:33:16;12.52;;;8.05;;
6663;SDS011;58749;48.022;10.922;2023-01-29T09:35:44;15.27;;;8.82;;
6663;SDS011;58749;48.022;10.922;2023-01-29T09:38:13;15.63;;;9.65;;
6663;SDS011;58749;48.022;10.922;2023-01-29T09:40:45;18.15;;;10.40;;
6663;SDS011;58749;48.022;10.922;2023-01-29T09:43:20;15.75;;;9.30;;
6663;SDS011;58749;48.022;10.922;2023-01-29T09:48:24;18.35;;;10.63;;
6663;SDS011;58749;48.022;10.922;2023-01-29T09:50:56;13.23;;;8.17;;
6663;SDS011;58749;48.022;10.922;2023-01-29T09:53:27;14.48;;;8.48;;
6663;SDS011;58749;48.022;10.922;2023-01-29T09:58:29;22.08;;;12.18;;
6663;SDS011;58749;48.022;10.922;2023-01-29T10:01:04;14.15;;;8.13;;
6663;SDS011;58749;48.022;10.922;2023-01-29T10:03:44;13.10;;;8.23;;
6663;SDS011;58749;48.022;10.922;2023-01-29T10:06:24;17.13;;;9.95;;
6663;SDS011;58749;48.022;10.922;2023-01-29T10:09:06;14.82;;;8.65;;
6663;SDS011;58749;48.022;10.922;2023-01-29T10:12:00;15.15;;;8.77;;
6663;SDS011;58749;48.022;10.922;2023-01-29T10:14:39;12.05;;;7.60;;
6663;SDS011;58749;48.022;10.922;2023-01-29T10:17:20;14.68;;;8.98;;
6663;SDS011;58749;48.022;10.922;2023-01-29T10:20:14;15.77;;;9.25;;
6663;SDS011;58749;48.022;10.922;2023-01-29T10:22:57;13.63;;;8.05;;
6663;SDS011;58749;48.022;10.922;2023-01-29T10:25:34;11.35;;;7.72;;
6663;SDS011;58749;48.022;10.922;2023-01-29T10:28:07;12.20;;;8.27;;
6663;SDS011;58749;48.022;10.922;2023-01-29T10:30:44;14.68;;;8.05;;
6663;SDS011;58749;48.022;10.922;2023-01-29T10:33:18;16.20;;;9.00;;
6663;SDS011;58749;48.022;10.922;2023-01-29T10:35:52;18.48;;;10.90;;
6663;SDS011;58749;48.022;10.922;2023-01-29T10:38:27;17.92;;;10.60;;
6663;SDS011;58749;48.022;10.922;2023-01-29T10:41:18;17.92;;;9.73;;
6663;SDS011;58749;48.022;10.922;2023-01-29T10:44:00;16.15;;;9.82;;
6663;SDS011;58749;48.022;10.922;2023-01-29T10:46:42;13.90;;;8.48;;
6663;SDS011;58749;48.022;10.922;2023-01-29T10:49:40;16.25;;;9.30;;
6663;SDS011;58749;48.022;10.922;2023-01-29T10:52:24;16.85;;;9.98;;
6663;SDS011;58749;48.022;10.922;2023-01-29T10:55:03;16.23;;;8.98;;
6663;SDS011;58749;48.022;10.922;2023-01-29T10:57:47;18.13;;;11.25;;
6663;SDS011;58749;48.022;10.922;2023-01-29T11:00:29;15.35;;;9.70;;
6663;SDS011;58749;48.022;10.922;2023-01-29T11:03:07;15.45;;;9.43;;
6663;SDS011;58749;48.022;10.922;2023-01-29T11:05:56;23.17;;;12.32;;
6663;SDS011;58749;48.022;10.922;2023-01-29T11:08:32;18.40;;;10.50;;
6663;SDS011;58749;48.022;10.922;2023-01-29T11:11:06;16.33;;;10.70;;
6663;SDS011;58749;48.022;10.922;2023-01-29T11:13:37;15.10;;;10.25;;
6663;SDS011;58749;48.022;10.922;2023-01-29T11:16:09;17.73;;;10.50;;
6663;SDS011;58749;48.022;10.922;2023-01-29T11:18:47;20.67;;;11.43;;
6663;SDS011;58749;48.022;10.922;2023-01-29T11:21:24;15.13;;;9.55;;
6663;SDS011;58749;48.022;10.922;2023-01-29T11:24:03;15.38;;;9.48;;
6663;SDS011;58749;48.022;10.922;2023-01-29T11:26:34;19.13;;;11.70;;
6663;SDS011;58749;48.022;10.922;2023-01-29T11:29:11;17.60;;;11.02;;
6663;SDS011;58749;48.022;10.922;2023-01-29T11:32:00;17.15;;;10.32;;
6663;SDS011;58749;48.022;10.922;2023-01-29T11:34:32;18.05;;;10.88;;
6663;SDS011;58749;48.022;10.922;2023-01-29T11:37:02;20.85;;;11.93;;
6663;SDS011;58749;48.022;10.922;2023-01-29T11:39:31;17.65;;;10.07;;
6663;SDS011;58749;48.022;10.922;2023-01-29T11:42:00;15.73;;;9.73;;
6663;SDS011;58749;48.022;10.922;2023-01-29T11:44:30;17.40;;;10.80;;
6663;SDS011;58749;48.022;10.922;2023-01-29T11:47:09;17.55;;;11.55;;
6663;SDS011;58749;48.022;10.922;2023-01-29T11:49:59;20.65;;;10.93;;
6663;SDS011;58749;48.022;10.922;2023-01-29T11:52:46;15.43;;;9.13;;
6663;SDS011;58749;48.022;10.922;2023-01-29T11:55:19;16.92;;;10.18;;
6663;SDS011;58749;48.022;10.922;2023-01-29T11:57:49;16.00;;;10.25;;
6663;SDS011;58749;48.022;10.922;2023-01-29T12:00:20;16.88;;;10.35;;
6663;SDS011;58749;48.022;10.922;2023-01-29T12:02:51;19.98;;;11.30;;
6663;SDS011;58749;48.022;10.922;2023-01-29T12:05:23;19.02;;;11.23;;
6663;SDS011;58749;48.022;10.922;2023-01-29T12:07:57;15.90;;;9.85;;
6663;SDS011;58749;48.022;10.922;2023-01-29T12:10:31;18.63;;;10.80;;
6663;SDS011;58749;48.022;10.922;2023-01-29T12:13:05;20.23;;;12.48;;
6663;SDS011;58749;48.022;10.922;2023-01-29T12:15:45;19.33;;;12.23;;
6663;SDS011;58749;48.022;10.922;2023-01-29T12:18:18;15.55;;;9.40;;
6663;SDS011;58749;48.022;10.922;2023-01-29T12:20:57;15.82;;;9.90;;
6663;SDS011;58749;48.022;10.922;2023-01-29T12:26:03;12.98;;;8.43;;
6663;SDS011;58749;48.022;10.922;2023-01-29T12:28:39;14.43;;;9.60;;
6663;SDS011;58749;48.022;10.922;2023-01-29T12:31:16;14.77;;;9.77;;
6663;SDS011;58749;48.022;10.922;2023-01-29T12:33:51;17.45;;;10.30;;
6663;SDS011;58749;48.022;10.922;2023-01-29T12:36:25;16.50;;;9.73;;
6663;SDS011;58749;48.022;10.922;2023-01-29T12:39:00;15.45;;;9.60;;
6663;SDS011;58749;48.022;10.922;2023-01-29T12:41:32;17.25;;;10.27;;
6663;SDS011;58749;48.022;10.922;2023-01-29T12:44:10;18.40;;;10.88;;
6663;SDS011;58749;48.022;10.922;2023-01-29T12:46:43;15.25;;;10.00;;
6663;SDS011;58749;48.022;10.922;2023-01-29T12:49:17;17.95;;;11.10;;
6663;SDS011;58749;48.022;10.922;2023-01-29T12:51:50;19.45;;;10.43;;
6663;SDS011;58749;48.022;10.922;2023-01-29T12:54:25;14.75;;;9.18;;
6663;SDS011;58749;48.022;10.922;2023-01-29T12:57:00;12.65;;;7.22;;
6663;SDS011;58749;48.022;10.922;2023-01-29T12:59:37;15.98;;;9.75;;
6663;SDS011;58749;48.022;10.922;2023-01-29T13:02:15;17.85;;;10.02;;
6663;SDS011;58749;48.022;10.922;2023-01-29T13:04:52;17.65;;;10.88;;
6663;SDS011;58749;48.022;10.922;2023-01-29T13:07:27;15.50;;;10.52;;
6663;SDS011;58749;48.022;10.922;2023-01-29T13:10:02;16.52;;;10.43;;
6663;SDS011;58749;48.022;10.922;2023-01-29T13:12:35;17.98;;;11.10;;
6663;SDS011;58749;48.022;10.922;2023-01-29T13:15:12;17.73;;;10.55;;
6663;SDS011;58749;48.022;10.922;2023-01-29T13:17:48;16.90;;;9.85;;
6663;SDS011;58749;48.022;10.922;2023-01-29T13:20:20;16.33;;;10.80;;
6663;SDS011;58749;48.022;10.922;2023-01-29T13:22:56;15.95;;;10.18;;
6663;SDS011;58749;48.022;10.922;2023-01-29T13:25:31;17.13;;;10.48;;
6663;SDS011;58749;48.022;10.922;2023-01-29T13:27:59;16.83;;;10.63;;
6663;SDS011;58749;48.022;10.922;2023-01-29T13:30:28;14.85;;;10.48;;
6663;SDS011;58749;48.022;10.922;2023-01-29T13:32:58;17.80;;;9.68;;
6663;SDS011;58749;48.022;10.922;2023-01-29T13:35:37;11.52;;;7.13;;
6663;SDS011;58749;48.022;10.922;2023-01-29T13:38:18;14.23;;;9.25;;
6663;SDS011;58749;48.022;10.922;2023-01-29T13:40:52;17.15;;;9.88;;
6663;SDS011;58749;48.022;10.922;2023-01-29T13:43:23;19.02;;;10.85;;
6663;SDS011;58749;48.022;10.922;2023-01-29T13:45:51;18.35;;;11.07;;
6663;SDS011;58749;48.022;10.922;2023-01-29T13:48:22;19.25;;;10.93;;
6663;SDS011;58749;48.022;10.922;2023-01-29T13:50:54;18.48;;;10.98;;
6663;SDS011;58749;48.022;10.922;2023-01-29T13:53:24;15.13;;;9.05;;
6663;SDS011;58749;48.022;10.922;2023-01-29T13:55:56;14.48;;;9.35;;
6663;SDS011;58749;48.022;10.922;2023-01-29T13:58:55;14.18;;;9.13;;
6663;SDS011;58749;48.022;10.922;2023-01-29T14:04:37;13.45;;;8.55;;
6663;SDS011;58749;48.022;10.922;2023-01-29T14:07:37;18.08;;;10.82;;
6663;SDS011;58749;48.022;10.922;2023-01-29T14:10:13;17.52;;;9.18;;
6663;SDS011;58749;48.022;10.922;2023-01-29T14:12:43;17.23;;;10.23;;
6663;SDS011;58749;48.022;10.922;2023-01-29T14:18:03;15.27;;;9.07;;
6663;SDS011;58749;48.022;10.922;2023-01-29T14:20:51;14.90;;;9.77;;
6663;SDS011;58749;48.022;10.922;2023-01-29T14:23:30;14.90;;;9.48;;
6663;SDS011;58749;48.022;10.922;2023-01-29T14:26:20;15.98;;;10.18;;
6663;SDS011;58749;48.022;10.922;2023-01-29T14:29:02;15.50;;;9.55;;
6663;SDS011;58749;48.022;10.922;2023-01-29T14:31:41;15.07;;;9.95;;
6663;SDS011;58749;48.022;10.922;2023-01-29T14:34:19;19.77;;;11.48;;
6663;SDS011;58749;48.022;10.922;2023-01-29T14:36:51;14.75;;;8.82;;
6663;SDS011;58749;48.022;10.922;2023-01-29T14:39:27;14.30;;;8.50;;
6663;SDS011;58749;48.022;10.922;2023-01-29T14:42:04;15.75;;;9.20;;
6663;SDS011;58749;48.022;10.922;2023-01-29T14:53:22;17.67;;;10.98;;
6663;SDS011;58749;48.022;10.922;2023-01-29T14:55:57;17.88;;;11.90;;
6663;SDS011;58749;48.022;10.922;2023-01-29T14:58:32;16.10;;;10.10;;
6663;SDS011;58749;48.022;10.922;2023-01-29T15:01:06;16.70;;;10.82;;
6663;SDS011;58749;48.022;10.922;2023-01-29T15:03:44;15.45;;;8.68;;
6663;SDS011;58749;48.022;10.922;2023-01-29T15:06:16;17.00;;;10.98;;
6663;SDS011;58749;48.022;10.922;2023-01-29T15:08:56;13.18;;;8.65;;
6663;SDS011;58749;48.022;10.922;2023-01-29T15:11:33;16.25;;;10.70;;
6663;SDS011;58749;48.022;10.922;2023-01-29T15:14:19;18.25;;;10.68;;
6663;SDS011;58749;48.022;10.922;2023-01-29T15:16:59;18.17;;;10.35;;
6663;SDS011;58749;48.022;10.922;2023-01-29T15:19:33;17.73;;;10.30;;
6663;SDS011;58749;48.022;10.922;2023-01-29T15:22:03;38.65;;;18.58;;
6663;SDS011;58749;48.022;10.922;2023-01-29T15:24:34;20.35;;;12.73;;